Time;durP1;ratioP1;P1;durP2;ratioP2;P2;SDS_P1;SDS_P2;PMS_P1;PMS_P2;Temp;Humidity;BMP_temperature;BMP_pressure;BME280_temperature;BME280_humidity;BME280_pressure;Samples;Min_cycle;Max_cycle;Signal;HPM_P1;HPM_P2
2021/06/07 00:01:49;;;;;;;27.33;24.25;;;461.10;2380.80;;;;;;4953635;29;20030;-76
2021/06/07 00:04:15;;;;;;;27.08;22.73;;;461.20;2380.80;;;;;;4953443;29;20024;-76
2021/06/07 00:06:42;;;;;;;25.58;21.50;;;461.40;2380.80;;;;;;4952540;29;20024;-76
2021/06/07 00:09:11;;;;;;;29.52;22.42;;;461.20;2380.80;;;;;;4953436;29;20046;-76
2021/06/07 00:11:39;;;;;;;30.52;23.55;;;461.20;2380.80;;;;;;4936249;29;20034;-75
2021/06/07 00:14:06;;;;;;;32.33;24.27;;;461.00;2380.80;;;;;;4953552;29;20027;-76
2021/06/07 00:16:32;;;;;;;28.08;25.10;;;460.80;2380.80;;;;;;4953232;29;20102;-76
2021/06/07 00:19:00;;;;;;;28.15;24.17;;;460.80;2380.80;;;;;;4953832;28;20023;-76
2021/06/07 00:21:28;;;;;;;25.50;22.63;;;461.00;2380.80;;;;;;4939631;29;20034;-76
2021/06/07 00:23:57;;;;;;;27.67;23.08;;;461.10;2380.80;;;;;;4957096;29;20035;-78
2021/06/07 00:26:23;;;;;;;29.73;22.95;;;461.20;2380.80;;;;;;4955520;29;20027;-76
2021/06/07 00:28:48;;;;;;;26.90;24.08;;;461.20;2380.80;;;;;;4939823;29;20041;-75
2021/06/07 00:31:14;;;;;;;26.42;22.38;;;461.10;2380.80;;;;;;4956807;29;20091;-76
2021/06/07 00:33:41;;;;;;;26.55;22.45;;;461.20;2380.80;;;;;;4956758;29;20031;-76
2021/06/07 00:36:08;;;;;;;26.75;22.13;;;461.20;2380.80;;;;;;4956991;29;20027;-76
2021/06/07 00:38:35;;;;;;;25.83;22.90;;;461.30;2380.80;;;;;;4956552;29;20038;-76
2021/06/07 00:41:03;;;;;;;29.67;23.83;;;461.20;2380.80;;;;;;4956915;29;20023;-75
2021/06/07 00:43:29;;;;;;;27.98;24.88;;;461.30;2380.80;;;;;;4956225;29;20035;-76
2021/06/07 00:45:55;;;;;;;25.75;21.75;;;461.40;2380.80;;;;;;4956813;29;20125;-76
2021/06/07 00:48:22;;;;;;;25.77;23.02;;;461.40;2380.80;;;;;;4956507;29;20039;-76
2021/06/07 00:50:52;;;;;;;27.00;23.23;;;461.50;2380.80;;;;;;4956724;29;20552;-75
2021/06/07 00:53:18;;;;;;;27.42;22.85;;;461.50;2380.80;;;;;;4956456;29;20374;-76
2021/06/07 00:55:50;;;;;;;26.40;22.98;;;461.50;2380.80;;;;;;4939137;29;20034;-76
2021/06/07 00:58:23;;;;;;;24.75;21.95;;;461.50;2380.80;;;;;;4956463;29;20027;-76
2021/06/07 01:00:49;;;;;;;27.52;23.75;;;461.40;2380.80;;;;;;4937380;29;20499;-75
2021/06/07 01:03:16;;;;;;;28.38;24.35;;;461.40;2380.80;;;;;;4920092;29;20027;-76
2021/06/07 01:05:45;;;;;;;27.50;22.70;;;461.40;2380.80;;;;;;4920051;29;20091;-75
2021/06/07 01:08:11;;;;;;;30.30;24.48;;;461.20;2380.80;;;;;;4937660;29;20032;-76
2021/06/07 01:10:37;;;;;;;27.13;24.20;;;461.10;2380.80;;;;;;4936872;29;20055;-76
2021/06/07 01:13:03;;;;;;;29.33;24.38;;;461.20;2380.80;;;;;;4936572;29;20573;-76
2021/06/07 01:15:29;;;;;;;27.40;24.30;;;461.10;2380.80;;;;;;4920085;29;20030;-75
2021/06/07 01:17:55;;;;;;;30.40;25.45;;;461.10;2380.80;;;;;;4936775;29;20103;-80
2021/06/07 01:20:23;;;;;;;27.88;24.90;;;461.00;2380.80;;;;;;4936880;29;20497;-75
2021/06/07 01:22:50;;;;;;;28.48;24.73;;;461.00;2380.80;;;;;;4936753;29;20481;-81
2021/06/07 01:25:21;;;;;;;29.00;25.23;;;460.90;2380.80;;;;;;4936836;29;20027;-75
2021/06/07 01:27:48;;;;;;;34.33;25.33;;;460.90;2380.80;;;;;;4936588;29;20485;-75
2021/06/07 01:30:16;;;;;;;30.52;25.23;;;461.00;2380.80;;;;;;4936288;29;20023;-75
2021/06/07 01:32:42;;;;;;;31.67;24.90;;;461.00;2380.80;;;;;;4936655;29;20027;-76
2021/06/07 01:35:11;;;;;;;30.77;24.95;;;461.00;2380.80;;;;;;4919465;29;20063;-79
2021/06/07 01:37:37;;;;;;;27.50;23.35;;;461.00;2380.80;;;;;;4936700;29;20111;-75
2021/06/07 01:40:06;;;;;;;27.20;23.95;;;461.00;2380.80;;;;;;4936384;29;20119;-75
2021/06/07 01:42:32;;;;;;;25.80;22.98;;;460.80;2380.80;;;;;;4936319;29;20528;-76
2021/06/07 01:44:58;;;;;;;27.20;21.13;;;460.80;2380.80;;;;;;4919032;29;20486;-75
2021/06/07 01:47:24;;;;;;;25.70;23.08;;;436.00;2355.20;;;;;;4936491;29;20038;-77
2021/06/07 01:49:50;;;;;;;24.70;20.77;;;435.90;2355.20;;;;;;4936235;29;20413;-76
2021/06/07 01:52:16;;;;;;;25.52;21.88;;;436.10;2355.20;;;;;;4919180;29;20082;-76
2021/06/07 01:54:41;;;;;;;25.23;21.33;;;436.10;2355.20;;;;;;4936147;29;20031;-76
2021/06/07 01:57:08;;;;;;;22.88;19.73;;;435.90;2355.20;;;;;;4935922;29;20024;-76
2021/06/07 01:59:34;;;;;;;23.00;20.58;;;435.80;2355.20;;;;;;4924921;29;20028;-76
2021/06/07 02:02:00;;;;;;;22.98;19.02;;;435.80;2355.20;;;;;;4952185;29;20102;-76
2021/06/07 02:04:26;;;;;;;18.13;16.23;;;435.80;2355.20;;;;;;4955119;29;20142;-76
2021/06/07 02:06:52;;;;;;;17.48;15.68;;;435.60;2355.20;;;;;;4955047;29;20046;-76
2021/06/07 02:09:17;;;;;;;25.40;17.15;;;435.50;2355.20;;;;;;4954163;29;20047;-76
2021/06/07 02:11:43;;;;;;;20.20;17.65;;;435.50;2355.20;;;;;;4937768;29;20032;-76
2021/06/07 02:14:09;;;;;;;19.55;17.55;;;435.40;2355.20;;;;;;4955175;29;20058;-76
2021/06/07 02:16:37;;;;;;;22.13;16.75;;;435.30;2355.20;;;;;;4954795;29;20090;-76
2021/06/07 02:19:07;;;;;;;17.52;15.75;;;435.30;2355.20;;;;;;4937911;29;20031;-76
2021/06/07 02:21:34;;;;;;;17.92;16.13;;;435.20;2355.20;;;;;;4937936;29;20122;-76
2021/06/07 02:24:06;;;;;;;17.23;15.02;;;435.30;2355.20;;;;;;4954618;29;20024;-76
2021/06/07 02:26:32;;;;;;;17.25;14.80;;;435.30;2355.20;;;;;;4954747;29;20039;-76
2021/06/07 02:29:06;;;;;;;20.63;15.80;;;435.30;2355.20;;;;;;4954398;29;20119;-76
2021/06/07 02:31:32;;;;;;;19.33;16.80;;;435.30;2355.20;;;;;;4955280;29;20035;-76
2021/06/07 02:34:00;;;;;;;21.15;17.95;;;435.20;2355.20;;;;;;4954610;29;20090;-76
2021/06/07 02:36:29;;;;;;;21.40;19.15;;;435.30;2355.20;;;;;;4937057;29;20084;-75
2021/06/07 02:38:56;;;;;;;22.75;18.88;;;435.20;2355.20;;;;;;4937474;29;20393;-75
2021/06/07 02:41:23;;;;;;;23.35;20.60;;;435.20;2355.20;;;;;;4936044;29;20516;-75
2021/06/07 02:43:49;;;;;;;21.52;18.85;;;435.30;2355.20;;;;;;4937121;29;20070;-76
2021/06/07 02:46:16;;;;;;;22.45;19.90;;;435.30;2355.20;;;;;;4954151;29;20043;-76
2021/06/07 02:48:42;;;;;;;24.70;20.88;;;435.30;2355.20;;;;;;4954636;29;20441;-76
2021/06/07 02:51:08;;;;;;;24.90;21.88;;;435.40;2355.20;;;;;;4954301;29;20019;-75
2021/06/07 02:53:34;;;;;;;22.67;19.55;;;435.40;2355.20;;;;;;4954557;29;20163;-75
2021/06/07 02:56:02;;;;;;;22.00;19.75;;;435.50;2355.20;;;;;;4953046;29;20039;-75
2021/06/07 02:58:28;;;;;;;25.77;20.80;;;435.50;2355.20;;;;;;4953565;29;20027;-76
2021/06/07 03:01:07;;;;;;;24.63;22.02;;;435.50;2355.20;;;;;;4935086;29;20087;-76
2021/06/07 03:03:32;;;;;;;26.92;22.08;;;435.50;2355.20;;;;;;4918068;29;20118;-81
2021/06/07 03:05:59;;;;;;;24.02;21.48;;;435.50;2355.20;;;;;;4917935;29;20111;-76
2021/06/07 03:08:32;;;;;;;25.92;21.92;;;435.30;2355.20;;;;;;4934490;29;20044;-75
2021/06/07 03:11:00;;;;;;;25.92;22.92;;;435.40;2355.20;;;;;;4934902;29;20102;-75
2021/06/07 03:13:26;;;;;;;43.90;22.45;;;435.50;2355.20;;;;;;4934800;29;20038;-76
2021/06/07 03:15:55;;;;;;;33.55;23.70;;;435.40;2355.20;;;;;;4933425;29;20027;-74
2021/06/07 03:18:22;;;;;;;28.48;23.70;;;435.40;2355.20;;;;;;4934726;29;20497;-75
2021/06/07 03:20:48;;;;;;;25.50;22.65;;;435.30;2355.20;;;;;;4934590;29;20035;-75
2021/06/07 03:23:23;;;;;;;29.42;22.00;;;435.30;2355.20;;;;;;4934896;29;20481;-75
2021/06/07 03:25:51;;;;;;;30.52;22.13;;;435.30;2355.20;;;;;;4917657;29;20371;-76
2021/06/07 03:28:18;;;;;;;25.45;21.48;;;435.30;2355.20;;;;;;4934659;29;20040;-76
2021/06/07 03:30:45;;;;;;;27.67;23.27;;;435.30;2355.20;;;;;;4934798;29;20038;-75
2021/06/07 03:33:12;;;;;;;25.58;21.60;;;435.30;2355.20;;;;;;4934709;29;20095;-75
2021/06/07 03:35:39;;;;;;;24.98;22.27;;;435.30;2355.20;;;;;;4917465;29;20138;-74
2021/06/07 03:38:06;;;;;;;23.83;20.77;;;435.40;2355.20;;;;;;4934563;29;20114;-75
2021/06/07 03:40:35;;;;;;;23.60;21.05;;;435.40;2355.20;;;;;;4934515;29;20421;-75
2021/06/07 03:43:01;;;;;;;25.92;21.88;;;435.40;2355.20;;;;;;4934589;29;20151;-75
2021/06/07 03:45:28;;;;;;;26.95;21.73;;;435.40;2355.20;;;;;;4917468;29;20051;-75
2021/06/07 03:47:54;;;;;;;25.05;20.67;;;435.50;2355.20;;;;;;4934367;29;20079;-75
2021/06/07 03:50:23;;;;;;;21.00;17.55;;;435.50;2355.20;;;;;;4934333;29;20036;-75
2021/06/07 03:52:49;;;;;;;20.50;17.17;;;435.60;2355.20;;;;;;4934389;29;20043;-75
2021/06/07 03:55:17;;;;;;;18.85;16.40;;;435.60;2355.20;;;;;;4938132;29;20456;-75
2021/06/07 03:57:43;;;;;;;21.05;18.30;;;435.70;2355.20;;;;;;4938492;29;20015;-75
2021/06/07 04:00:11;;;;;;;18.88;16.90;;;435.80;2355.20;;;;;;4947427;29;20089;-80
2021/06/07 04:02:38;;;;;;;26.60;19.58;;;435.80;2355.20;;;;;;4957311;29;20027;-76
2021/06/07 04:05:05;;;;;;;22.85;18.23;;;435.50;2355.20;;;;;;4955786;29;20071;-76
2021/06/07 04:07:31;;;;;;;23.17;16.80;;;435.40;2355.20;;;;;;4957288;29;20031;-75
2021/06/07 04:09:57;;;;;;;19.40;17.40;;;435.30;2355.20;;;;;;4957057;29;20500;-75
2021/06/07 04:12:22;;;;;;;18.35;15.02;;;435.20;2355.20;;;;;;4955781;29;20027;-75
2021/06/07 04:14:48;;;;;;;18.95;16.52;;;435.30;2355.20;;;;;;4939896;29;20488;-81
2021/06/07 04:17:14;;;;;;;18.65;16.10;;;435.40;2355.20;;;;;;4956986;29;20027;-75
2021/06/07 04:19:39;;;;;;;16.00;14.32;;;435.30;2355.20;;;;;;4957227;29;20032;-75
2021/06/07 04:22:05;;;;;;;17.30;15.50;;;435.50;2355.20;;;;;;4955226;29;20097;-75
2021/06/07 04:24:31;;;;;;;18.70;14.48;;;435.60;2355.20;;;;;;4956922;29;20064;-74
2021/06/07 04:26:57;;;;;;;17.55;14.77;;;435.60;2355.20;;;;;;4956972;29;20055;-75
2021/06/07 04:29:24;;;;;;;17.98;15.35;;;435.60;2355.20;;;;;;4957205;29;20117;-75
2021/06/07 04:31:50;;;;;;;21.02;15.75;;;435.70;2355.20;;;;;;4955563;29;20110;-75
2021/06/07 04:34:16;;;;;;;21.40;15.15;;;435.80;2355.20;;;;;;4956829;29;20154;-75
2021/06/07 04:36:41;;;;;;;18.08;14.25;;;435.90;2355.20;;;;;;4939665;29;20121;-75
2021/06/07 04:39:07;;;;;;;17.15;13.75;;;435.90;2355.20;;;;;;4939723;29;20031;-75
2021/06/07 04:41:33;;;;;;;16.75;13.32;;;436.00;2355.20;;;;;;4939424;29;20031;-76
2021/06/07 04:44:00;;;;;;;16.60;14.65;;;436.10;2355.20;;;;;;4956781;29;20035;-76
2021/06/07 04:46:27;;;;;;;20.17;13.68;;;435.90;2355.20;;;;;;4956334;29;20416;-80
2021/06/07 04:48:53;;;;;;;17.55;13.75;;;435.90;2355.20;;;;;;4956303;29;20067;-76
2021/06/07 04:51:19;;;;;;;16.55;14.48;;;436.10;2355.20;;;;;;4956526;29;20067;-76
2021/06/07 04:53:44;;;;;;;16.00;13.88;;;460.80;2380.80;;;;;;4956330;29;20039;-75
2021/06/07 04:56:11;;;;;;;16.50;14.27;;;460.80;2380.80;;;;;;4957221;29;20122;-75
2021/06/07 04:58:37;;;;;;;15.93;12.23;;;460.90;2380.80;;;;;;4954506;29;20102;-73
2021/06/07 05:01:06;;;;;;;14.60;12.68;;;461.00;2380.80;;;;;;4937260;29;20115;-77
2021/06/07 05:03:33;;;;;;;18.60;13.30;;;461.00;2380.80;;;;;;4936911;29;20036;-75
2021/06/07 05:06:01;;;;;;;15.80;14.10;;;461.10;2380.80;;;;;;4936637;29;20016;-79
2021/06/07 05:08:28;;;;;;;17.77;14.63;;;461.10;2380.80;;;;;;4937043;29;20043;-74
2021/06/07 05:10:54;;;;;;;23.77;15.63;;;461.10;2380.80;;;;;;4936608;29;20026;-75
2021/06/07 05:13:21;;;;;;;16.63;14.82;;;461.20;2380.80;;;;;;4936558;29;20173;-75
2021/06/07 05:15:47;;;;;;;24.60;16.67;;;461.20;2380.80;;;;;;4919054;29;20020;-79
2021/06/07 05:18:13;;;;;;;16.77;14.85;;;461.30;2380.80;;;;;;4936669;29;20078;-77
2021/06/07 05:20:41;;;;;;;18.63;16.02;;;461.40;2380.80;;;;;;4919149;29;20059;-77
2021/06/07 05:23:08;;;;;;;15.75;14.10;;;461.40;2380.80;;;;;;4936349;29;20430;-75
2021/06/07 05:25:35;;;;;;;18.73;14.82;;;461.50;2380.80;;;;;;4919239;29;20023;-75
2021/06/07 05:28:03;;;;;;;15.70;13.70;;;461.50;2380.80;;;;;;4936371;29;20087;-75
2021/06/07 05:30:31;;;;;;;17.52;14.60;;;461.50;2380.80;;;;;;4936027;29;20111;-76
2021/06/07 05:32:57;;;;;;;15.23;13.57;;;461.70;2380.80;;;;;;4919001;29;20024;-75
2021/06/07 05:35:25;;;;;;;15.40;12.45;;;461.70;2380.80;;;;;;4936220;29;20031;-75
2021/06/07 05:37:51;;;;;;;13.57;12.18;;;461.70;2380.80;;;;;;4933590;29;20023;-75
2021/06/07 05:40:18;;;;;;;14.63;13.10;;;461.70;2380.80;;;;;;4936276;29;20020;-74
2021/06/07 05:42:45;;;;;;;14.80;12.75;;;486.40;2380.80;;;;;;4918894;29;20194;-75
2021/06/07 05:45:13;;;;;;;15.23;13.40;;;486.40;2380.80;;;;;;4935749;29;20032;-75
2021/06/07 05:47:40;;;;;;;15.25;13.20;;;486.50;2380.80;;;;;;4935785;29;20039;-76
2021/06/07 05:50:09;;;;;;;14.88;13.27;;;486.50;2380.80;;;;;;4935849;29;20028;-75
2021/06/07 05:52:35;;;;;;;14.35;12.10;;;486.60;2380.80;;;;;;4935818;29;20055;-76
2021/06/07 05:55:01;;;;;;;14.43;12.93;;;486.60;2380.80;;;;;;4918559;29;20134;-74
2021/06/07 05:57:27;;;;;;;18.60;14.27;;;486.70;2380.80;;;;;;4936278;29;20020;-75
2021/06/07 05:59:53;;;;;;;17.63;13.63;;;486.70;2380.80;;;;;;4935179;29;20066;-75
2021/06/07 06:02:19;;;;;;;16.23;14.52;;;486.80;2380.80;;;;;;4935565;29;20107;-75
2021/06/07 06:04:44;;;;;;;14.00;12.57;;;486.90;2380.80;;;;;;4935009;29;20035;-74
2021/06/07 06:07:10;;;;;;;14.93;12.57;;;487.00;2380.80;;;;;;4935502;29;20458;-74
2021/06/07 06:09:36;;;;;;;15.93;13.98;;;487.00;2380.80;;;;;;4935317;29;20220;-76
2021/06/07 06:12:03;;;;;;;16.40;14.02;;;487.20;2380.80;;;;;;4935520;29;20034;-78
2021/06/07 06:14:29;;;;;;;16.42;12.10;;;487.20;2380.80;;;;;;4935132;29;20083;-75
2021/06/07 06:16:55;;;;;;;15.27;12.88;;;487.30;2380.80;;;;;;4934889;29;20032;-75
2021/06/07 06:19:23;;;;;;;15.77;13.10;;;487.30;2380.80;;;;;;4933608;29;20442;-75
2021/06/07 06:21:49;;;;;;;19.45;13.05;;;512.00;2380.80;;;;;;4935525;29;20019;-75
2021/06/07 06:24:15;;;;;;;14.82;12.60;;;512.20;2380.80;;;;;;4918471;29;20124;-74
2021/06/07 06:26:42;;;;;;;15.23;13.18;;;512.30;2380.80;;;;;;4935298;29;20122;-74
2021/06/07 06:29:08;;;;;;;14.05;12.50;;;512.40;2380.80;;;;;;4935451;29;20036;-74
2021/06/07 06:31:34;;;;;;;13.57;11.20;;;512.50;2329.60;;;;;;4935290;29;20043;-75
2021/06/07 06:34:02;;;;;;;18.05;10.73;;;512.60;2304.00;;;;;;4935481;29;20430;-77
2021/06/07 06:36:28;;;;;;;10.93;9.63;;;512.80;2252.80;;;;;;4935309;29;20091;-76
2021/06/07 06:38:54;;;;;;;10.60;8.98;;;512.80;2227.20;;;;;;4935681;29;20106;-80
2021/06/07 06:41:20;;;;;;;11.48;8.73;;;512.90;2176.00;;;;;;4935197;29;20419;-74
2021/06/07 06:43:46;;;;;;;11.65;8.50;;;537.70;2150.40;;;;;;4935228;29;20035;-75
2021/06/07 06:46:12;;;;;;;10.75;7.93;;;537.80;2150.40;;;;;;4935245;29;20079;-74
2021/06/07 06:48:38;;;;;;;15.82;8.93;;;537.90;2150.40;;;;;;4934790;29;20067;-75
2021/06/07 06:51:05;;;;;;;13.25;8.93;;;538.00;2150.40;;;;;;4935513;29;20102;-75
2021/06/07 06:53:30;;;;;;;12.73;8.65;;;538.10;2124.80;;;;;;4918077;29;20114;-75
2021/06/07 06:55:56;;;;;;;14.00;10.55;;;538.20;2124.80;;;;;;4935280;29;20108;-77
2021/06/07 06:58:22;;;;;;;15.73;11.27;;;538.30;2150.40;;;;;;4934859;29;20040;-74
2021/06/07 07:00:49;;;;;;;23.27;11.30;;;538.40;2150.40;;;;;;4949300;29;20492;-75
2021/06/07 07:03:17;;;;;;;17.00;12.20;;;538.50;2150.40;;;;;;4953749;29;20055;-75
2021/06/07 07:05:44;;;;;;;16.73;12.98;;;563.30;2150.40;;;;;;4954027;29;20102;-74
2021/06/07 07:08:10;;;;;;;17.73;12.52;;;563.40;2150.40;;;;;;4954426;29;20043;-76
2021/06/07 07:10:39;;;;;;;15.45;12.13;;;563.50;2124.80;;;;;;4936607;29;20030;-74
2021/06/07 07:13:05;;;;;;;17.38;11.50;;;563.60;2099.20;;;;;;4953739;29;20031;-74
2021/06/07 07:15:32;;;;;;;14.35;11.23;;;563.70;2073.60;;;;;;4953698;29;20508;-74
2021/06/07 07:17:58;;;;;;;14.30;10.95;;;563.80;2073.60;;;;;;4954091;29;20031;-74
2021/06/07 07:20:23;;;;;;;16.00;11.38;;;564.00;2073.60;;;;;;4953647;29;20106;-76
2021/06/07 07:22:49;;;;;;;13.48;10.55;;;564.10;2048.00;;;;;;4954013;29;20492;-75
2021/06/07 07:25:15;;;;;;;11.57;6.88;;;588.80;2048.00;;;;;;4953675;29;20114;-75
2021/06/07 07:27:42;;;;;;;8.75;5.35;;;588.90;1971.20;;;;;;4937669;29;20032;-76
2021/06/07 07:30:13;;;;;;;9.23;5.43;;;589.00;1868.80;;;;;;4933983;29;20030;-76
2021/06/07 07:32:41;;;;;;;9.18;6.05;;;589.10;1843.20;;;;;;4917290;29;20075;-76
2021/06/07 07:35:07;;;;;;;7.82;5.88;;;589.30;1920.00;;;;;;4934268;29;20111;-74
2021/06/07 07:37:34;;;;;;;9.93;6.50;;;589.40;1894.40;;;;;;4934084;29;20027;-75
2021/06/07 07:40:00;;;;;;;13.38;6.35;;;589.50;1894.40;;;;;;4934173;29;20019;-76
2021/06/07 07:42:26;;;;;;;11.55;6.45;;;589.50;1894.40;;;;;;4933981;29;20042;-76
2021/06/07 07:44:51;;;;;;;8.48;6.90;;;589.60;1868.80;;;;;;4933820;29;20418;-75
2021/06/07 07:47:18;;;;;;;9.45;6.32;;;589.70;1868.80;;;;;;4933712;29;20066;-74
2021/06/07 07:49:45;;;;;;;9.85;6.78;;;614.40;1843.20;;;;;;4933942;29;20020;-76
2021/06/07 07:52:11;;;;;;;8.90;6.78;;;614.40;1843.20;;;;;;4933661;29;20035;-77
2021/06/07 07:54:37;;;;;;;9.90;6.78;;;614.40;1792.00;;;;;;4933669;29;20414;-75
2021/06/07 07:57:05;;;;;;;8.55;5.78;;;614.50;1817.60;;;;;;4934102;29;20035;-79
2021/06/07 07:59:31;;;;;;;8.88;6.45;;;614.70;1817.60;;;;;;4938254;29;20078;-75
2021/06/07 08:01:57;;;;;;;10.55;5.97;;;614.70;1792.00;;;;;;4919467;29;20024;-76
2021/06/07 08:04:23;;;;;;;9.20;5.20;;;614.80;1843.20;;;;;;4933531;29;20109;-75
2021/06/07 08:06:49;;;;;;;7.78;5.22;;;614.80;1766.40;;;;;;4934178;29;20039;-76
2021/06/07 08:09:15;;;;;;;11.82;5.20;;;614.80;1792.00;;;;;;4932873;29;20135;-75
2021/06/07 08:11:41;;;;;;;10.25;5.30;;;614.90;1792.00;;;;;;4934476;29;20031;-75
2021/06/07 08:14:06;;;;;;;7.93;5.45;;;615.10;1817.60;;;;;;4933902;29;20043;-79
2021/06/07 08:16:33;;;;;;;12.48;6.25;;;615.10;1792.00;;;;;;4933725;29;20039;-76
2021/06/07 08:18:58;;;;;;;11.18;6.47;;;615.20;1766.40;;;;;;4934067;29;20035;-73
2021/06/07 08:21:24;;;;;;;17.52;6.82;;;615.20;1843.20;;;;;;4934276;29;20422;-78
2021/06/07 08:23:50;;;;;;;8.55;6.53;;;615.30;1792.00;;;;;;4934333;29;20028;-74
2021/06/07 08:26:16;;;;;;;8.73;5.57;;;615.30;1817.60;;;;;;4933211;29;20039;-75
2021/06/07 08:28:42;;;;;;;8.38;5.50;;;640.00;1817.60;;;;;;4934001;29;20115;-74
2021/06/07 08:31:08;;;;;;;9.05;6.07;;;640.00;1817.60;;;;;;4934178;29;20031;-75
2021/06/07 08:33:35;;;;;;;6.05;5.10;;;640.00;1766.40;;;;;;4934188;29;20034;-78
2021/06/07 08:36:05;;;;;;;8.00;5.75;;;640.10;1766.40;;;;;;4934655;29;20020;-81
2021/06/07 08:38:32;;;;;;;8.75;5.22;;;640.30;1766.40;;;;;;4934115;29;20023;-82
2021/06/07 08:40:58;;;;;;;7.32;4.25;;;640.40;1664.00;;;;;;4920080;29;20533;-79
2021/06/07 08:43:25;;;;;;;7.28;5.22;;;640.40;1715.20;;;;;;4937523;29;20040;-75
2021/06/07 08:45:51;;;;;;;8.75;5.28;;;640.40;1664.00;;;;;;4937367;29;20047;-81
2021/06/07 08:48:18;;;;;;;8.18;4.53;;;640.30;1689.60;;;;;;4937080;29;20040;-79
2021/06/07 08:50:44;;;;;;;11.77;4.80;;;640.60;1664.00;;;;;;4937678;29;20020;-76
2021/06/07 08:53:10;;;;;;;7.28;4.90;;;640.50;1664.00;;;;;;4937431;29;20086;-80
2021/06/07 08:55:37;;;;;;;7.55;4.85;;;640.60;1664.00;;;;;;4937251;29;20054;-75
2021/06/07 08:58:05;;;;;;;10.43;4.88;;;640.60;1664.00;;;;;;4937085;29;20478;-78
2021/06/07 09:00:38;;;;;;;7.07;4.50;;;640.70;1664.00;;;;;;4949545;29;20030;-81
2021/06/07 09:03:14;;;;;;;5.95;4.57;;;640.80;1638.40;;;;;;4956152;29;20031;-76
2021/06/07 09:05:42;;;;;;;12.68;7.55;;;640.90;1612.80;;;;;;4948617;29;20023;-80
2021/06/07 09:08:11;;;;;;;11.93;8.25;;;665.60;1664.00;;;;;;4917320;29;20390;-76
2021/06/07 09:10:38;;;;;;;18.98;13.35;;;665.60;1612.80;;;;;;4936310;29;20106;-76
2021/06/07 09:13:07;;;;;;;6.32;4.57;;;665.90;1612.80;;;;;;4935396;29;20602;-76
2021/06/07 09:15:53;;;;;;;13.90;5.97;;;;;;;;;;4936370;29;20026;-80
2021/06/07 09:18:30;;;;;;;;;;;666.10;1561.60;;;;;;4936213;29;20035;-76
2021/06/07 09:21:15;;;;;;;10.77;5.10;;;666.20;1510.40;;;;;;4936366;29;19915;-74
2021/06/07 09:24:03;;;;;;;16.47;6.97;;;666.20;1484.80;;;;;;4934259;29;20023;-75
2021/06/07 09:26:30;;;;;;;15.20;6.10;;;666.30;1459.20;;;;;;4934558;29;20028;-75
2021/06/07 09:28:59;;;;;;;18.85;6.13;;;666.50;1484.80;;;;;;4936260;29;20046;-74
2021/06/07 09:31:49;;;;;;;5.63;4.47;;;666.50;1484.80;;;;;;4936017;29;20047;-75
2021/06/07 09:34:25;;;;;;;12.35;4.53;;;691.20;1459.20;;;;;;4935086;29;20039;-76
2021/06/07 09:36:51;;;;;;;;;;;691.30;1510.40;;;;;;4935318;29;20028;-79
2021/06/07 09:39:27;;;;;;;6.30;3.70;;;691.50;1484.80;;;;;;4936058;29;20030;-80
2021/06/07 09:41:55;;;;;;;;;;;691.70;1408.00;;;;;;4919295;29;20039;-76
2021/06/07 09:44:23;;;;;;;7.07;4.10;;;691.70;1382.40;;;;;;4931686;29;19914;-77
2021/06/07 09:46:50;;;;;;;11.65;4.80;;;691.80;1382.40;;;;;;4935479;29;20039;-75
2021/06/07 09:49:19;;;;;;;7.72;5.97;;;691.90;1356.80;;;;;;4935848;29;20032;-75
2021/06/07 09:51:59;;;;;;;7.55;4.65;;;691.90;1382.40;;;;;;4933232;29;20020;-74
2021/06/07 09:54:27;;;;;;;7.38;4.45;;;716.80;1331.20;;;;;;4933478;29;20028;-74
2021/06/07 09:56:56;;;;;;;6.20;3.50;;;692.00;1331.20;;;;;;4935781;29;20058;-79
2021/06/07 09:59:30;;;;;;;6.25;5.20;;;717.00;1305.60;;;;;;4932961;29;20111;-74
2021/06/07 10:02:00;;;;;;;12.40;7.40;;;717.10;1280.00;;;;;;4935700;29;20094;-78
2021/06/07 10:04:55;;;;;;;6.90;4.28;;;717.20;1280.00;;;;;;4933570;29;20012;-76
2021/06/07 10:07:21;;;;;;;8.07;5.20;;;717.20;1280.00;;;;;;4857905;29;20033;-76
2021/06/07 10:10:21;;;;;;;5.97;4.30;;;717.40;1280.00;;;;;;4858514;29;20077;-74
2021/06/07 10:12:48;;;;;;;8.82;5.07;;;717.50;1228.80;;;;;;4803519;29;20058;-75
2021/06/07 10:15:35;;;;;;;7.57;5.60;;;717.50;1228.80;;;;;;4803365;29;20040;-74
2021/06/07 10:18:03;;;;;;;5.00;3.78;;;717.50;1254.40;;;;;;4802573;29;20038;-80
2021/06/07 10:22:58;;;;;;;9.70;6.00;;;717.70;1177.60;;;;;;4803163;29;20038;-75
2021/06/07 10:25:24;;;;;;;5.72;4.30;;;717.70;1203.20;;;;;;4801043;29;20041;-78
2021/06/07 10:27:50;;;;;;;12.30;6.38;;;742.40;1203.20;;;;;;4803083;29;20039;-79
2021/06/07 10:30:22;;;;;;;7.72;5.43;;;742.40;1228.80;;;;;;4803243;29;20031;-76
2021/06/07 10:32:50;;;;;;;9.50;7.90;;;742.50;1203.20;;;;;;4803416;29;20395;-79
2021/06/07 10:35:36;;;;;;;10.07;7.57;;;742.50;1126.40;;;;;;4802928;29;20023;-74
2021/06/07 10:38:09;;;;;;;7.80;4.72;;;742.50;1152.00;;;;;;4803068;29;20058;-75
2021/06/07 10:40:44;;;;;;;6.40;4.75;;;742.40;1126.40;;;;;;4802950;29;20042;-78
2021/06/07 10:43:11;;;;;;;4.13;3.30;;;742.50;1126.40;;;;;;4804750;29;20039;-81
2021/06/07 10:45:40;;;;;;;16.48;8.18;;;742.40;1177.60;;;;;;4839498;29;20053;-80
2021/06/07 10:48:08;;;;;;;5.30;4.38;;;742.40;1280.00;;;;;;4845052;29;20519;-79
2021/06/07 10:50:45;;;;;;;8.60;4.32;;;717.70;1228.80;;;;;;4934917;29;20078;-80
2021/06/07 10:53:25;;;;;;;6.38;3.45;;;717.40;1228.80;;;;;;4933227;29;20470;-78
2021/06/07 10:56:10;;;;;;;5.43;3.60;;;717.40;1177.60;;;;;;4933027;29;20027;-79
2021/06/07 10:58:53;;;;;;;9.40;4.95;;;717.40;1203.20;;;;;;4933563;29;20055;-79
2021/06/07 11:01:19;;;;;;;5.10;3.83;;;717.20;1203.20;;;;;;4934035;29;20043;-80
2021/06/07 11:03:59;;;;;;;7.00;4.75;;;717.70;1177.60;;;;;;4933955;29;20032;-78
2021/06/07 11:06:25;;;;;;;9.13;5.93;;;717.70;1152.00;;;;;;4914885;29;20097;-81
2021/06/07 11:09:06;;;;;;;17.42;12.35;;;742.50;1152.00;;;;;;4934526;29;20070;-80
2021/06/07 11:11:47;;;;;;;13.52;10.02;;;742.70;1177.60;;;;;;4915773;29;20023;-81
2021/06/07 11:14:13;;;;;;;10.07;4.07;;;742.80;1152.00;;;;;;4932954;29;20023;-74
2021/06/07 11:16:46;;;;;;;6.32;4.78;;;742.90;1126.40;;;;;;4934117;29;20026;-72
2021/06/07 11:19:14;;;;;;;12.40;6.10;;;742.90;1100.80;;;;;;4932579;29;20027;-73
2021/06/07 11:22:01;;;;;;;11.95;8.25;;;742.90;1152.00;;;;;;4934042;29;20031;-75
2021/06/07 11:24:37;;;;;;;22.25;12.25;;;742.90;1049.60;;;;;;4931413;29;20020;-76
2021/06/07 11:27:06;;;;;;;10.10;6.90;;;743.00;1100.80;;;;;;4934244;29;20024;-73
2021/06/07 11:29:33;;;;;;;19.60;9.35;;;743.10;1049.60;;;;;;4933911;29;20040;-73
2021/06/07 11:32:01;;;;;;;22.05;7.28;;;743.20;1126.40;;;;;;4933942;29;20031;-73
2021/06/07 11:34:44;;;;;;;6.13;4.25;;;743.00;1075.20;;;;;;4931452;29;20050;-73
2021/06/07 11:37:15;;;;;;;9.93;4.25;;;743.10;1049.60;;;;;;4931662;29;20110;-72
2021/06/07 11:39:43;;;;;;;6.65;4.20;;;743.20;1049.60;;;;;;4934166;29;20024;-73
2021/06/07 11:42:15;;;;;;;6.63;4.25;;;743.30;1075.20;;;;;;4931955;29;20482;-73
2021/06/07 11:44:44;;;;;;;10.05;5.20;;;743.10;1049.60;;;;;;4933843;29;20027;-73
2021/06/07 11:47:11;;;;;;;19.83;6.00;;;743.20;1100.80;;;;;;4915045;29;20032;-75
2021/06/07 11:49:57;;;;;;;8.30;4.10;;;743.30;1100.80;;;;;;4914738;29;20032;-75
2021/06/07 11:52:32;;;;;;;12.02;5.68;;;768.10;1049.60;;;;;;4914101;29;20028;-73
2021/06/07 11:55:14;;;;;;;9.30;5.57;;;743.30;1075.20;;;;;;4915042;29;20111;-73
2021/06/07 11:57:40;;;;;;;6.18;3.53;;;768.00;1075.20;;;;;;4914631;29;20027;-72
2021/06/07 12:00:06;;;;;;;9.20;4.53;;;743.30;1049.60;;;;;;4914961;29;20123;-73
2021/06/07 12:02:32;;;;;;;12.55;4.50;;;768.10;1075.20;;;;;;4914611;29;20020;-73
2021/06/07 12:05:05;;;;;;;5.35;3.70;;;768.10;1075.20;;;;;;4914722;29;20020;-73
2021/06/07 12:07:34;;;;;;;7.47;3.58;;;768.20;998.40;;;;;;4912575;29;20024;-75
2021/06/07 12:10:00;;;;;;;6.35;4.47;;;768.20;1049.60;;;;;;4914515;29;20032;-76
2021/06/07 12:12:29;;;;;;;6.55;3.95;;;768.20;1024.00;;;;;;4914851;29;20020;-73
2021/06/07 12:14:55;;;;;;;9.90;5.03;;;768.20;972.80;;;;;;4917596;29;20101;-73